createdAt,value
2023-02-27T00:00:02.879Z,382.00
2023-02-27T00:00:58.093Z,381.00
2023-02-27T00:01:53.854Z,396.00
2023-02-27T00:02:49.256Z,388.00
2023-02-27T00:03:45.258Z,382.00
2023-02-27T00:04:40.353Z,387.00
2023-02-27T00:05:35.565Z,388.00
2023-02-27T00:06:31.362Z,388.00
2023-02-27T00:07:26.546Z,384.00
2023-02-27T00:08:22.139Z,385.00
2023-02-27T00:09:18.057Z,387.00
2023-02-27T00:10:13.274Z,385.00
2023-02-27T00:11:09.075Z,393.00
2023-02-27T00:12:04.361Z,391.00
2023-02-27T00:12:59.669Z,384.00
2023-02-27T00:13:55.479Z,384.00
2023-02-27T00:16:14.592Z,375.00
2023-02-27T00:17:09.704Z,366.00
2023-02-27T00:18:05.039Z,369.00
2023-02-27T00:19:00.234Z,369.00
2023-02-27T00:19:55.259Z,365.00
2023-02-27T00:20:50.581Z,372.00
2023-02-27T00:21:45.907Z,371.00
2023-02-27T00:22:41.088Z,375.00
2023-02-27T00:23:36.292Z,376.00
2023-02-27T00:24:31.894Z,367.00
2023-02-27T00:25:26.652Z,376.00
2023-02-27T00:26:21.975Z,370.00
2023-02-27T00:27:17.061Z,376.00
2023-02-27T00:28:12.234Z,369.00
2023-02-27T00:29:07.426Z,366.00
2023-02-27T00:30:02.761Z,365.00
2023-02-27T00:30:58.033Z,362.00
2023-02-27T00:31:53.428Z,366.00
2023-02-27T00:32:48.543Z,365.00
2023-02-27T00:33:43.781Z,371.00
2023-02-27T00:34:38.969Z,375.00
2023-02-27T00:35:34.319Z,375.00
2023-02-27T00:36:29.756Z,366.00
2023-02-27T00:37:24.842Z,367.00
2023-02-27T00:38:20.050Z,364.00
2023-02-27T00:39:15.278Z,364.00
2023-02-27T00:40:10.479Z,362.00
2023-02-27T00:41:05.694Z,363.00
2023-02-27T00:42:00.917Z,373.00
2023-02-27T00:42:56.237Z,369.00
2023-02-27T00:43:51.473Z,363.00
2023-02-27T00:44:46.691Z,367.00
2023-02-27T00:45:41.974Z,364.00
2023-02-27T00:46:37.327Z,363.00
2023-02-27T00:47:32.382Z,375.00
2023-02-27T00:48:27.577Z,365.00
2023-02-27T00:49:22.768Z,368.00
2023-02-27T00:50:17.963Z,368.00
2023-02-27T00:51:13.176Z,367.00
2023-02-27T00:52:08.383Z,365.00
2023-02-27T00:53:03.561Z,365.00
2023-02-27T00:53:58.890Z,361.00
2023-02-27T00:54:54.146Z,379.00
2023-02-27T00:55:49.472Z,368.00
2023-02-27T00:56:44.701Z,365.00
2023-02-27T00:57:39.841Z,370.00
2023-02-27T00:58:35.016Z,355.00
2023-02-27T00:59:30.244Z,366.00
2023-02-27T01:00:25.571Z,365.00
2023-02-27T01:01:20.645Z,372.00
2023-02-27T01:02:15.925Z,369.00
2023-02-27T01:03:11.120Z,364.00
2023-02-27T01:04:06.299Z,361.00
2023-02-27T01:05:01.518Z,360.00
2023-02-27T01:05:56.719Z,363.00
2023-02-27T01:06:52.173Z,359.00
2023-02-27T01:07:47.252Z,366.00
2023-02-27T01:08:42.436Z,364.00
2023-02-27T01:09:37.672Z,361.00
2023-02-27T01:10:33.007Z,360.00
2023-02-27T01:11:28.302Z,363.00
2023-02-27T01:12:23.315Z,362.00
2023-02-27T01:13:18.542Z,368.00
2023-02-27T01:14:13.736Z,368.00
2023-02-27T01:15:08.936Z,358.00
2023-02-27T01:16:04.515Z,363.00
2023-02-27T01:16:59.685Z,363.00
2023-02-27T01:17:54.905Z,360.00
2023-02-27T01:18:50.067Z,362.00
2023-02-27T01:19:45.270Z,363.00
2023-02-27T01:20:40.560Z,361.00
2023-02-27T01:21:35.788Z,361.00
2023-02-27T01:22:31.046Z,368.00
2023-02-27T01:23:26.219Z,364.00
2023-02-27T01:24:21.471Z,368.00
2023-02-27T01:25:16.745Z,364.00
2023-02-27T01:26:11.921Z,369.00
2023-02-27T01:27:07.466Z,367.00
2023-02-27T01:28:02.538Z,367.00
2023-02-27T01:28:57.868Z,369.00
2023-02-27T01:29:53.451Z,362.00
2023-02-27T01:30:48.402Z,364.00
2023-02-27T01:31:43.666Z,360.00
2023-02-27T01:32:38.893Z,359.00
2023-02-27T01:33:34.055Z,362.00
2023-02-27T01:34:29.378Z,364.00
2023-02-27T01:35:24.830Z,361.00
2023-02-27T01:36:19.908Z,365.00
2023-02-27T01:37:15.337Z,364.00
2023-02-27T01:38:10.444Z,362.00
2023-02-27T01:39:05.633Z,366.00
2023-02-27T01:40:00.974Z,358.00
2023-02-27T01:40:56.078Z,370.00
2023-02-27T01:41:51.260Z,367.00
2023-02-27T01:42:46.467Z,370.00
2023-02-27T01:43:41.815Z,364.00
2023-02-27T01:44:36.887Z,365.00
2023-02-27T01:45:32.156Z,363.00
2023-02-27T01:46:27.341Z,360.00
2023-02-27T01:47:23.331Z,367.00
2023-02-27T01:48:18.773Z,369.00
2023-02-27T01:49:13.233Z,362.00
2023-02-27T01:50:08.428Z,368.00
2023-02-27T01:51:03.721Z,358.00
2023-02-27T01:51:58.887Z,361.00
2023-02-27T01:52:54.089Z,363.00
2023-02-27T01:53:49.501Z,361.00
2023-02-27T01:54:44.559Z,365.00
2023-02-27T01:55:39.792Z,366.00
2023-02-27T01:56:34.969Z,359.00
2023-02-27T01:57:30.298Z,366.00
2023-02-27T01:58:25.489Z,363.00
2023-02-27T01:59:20.671Z,361.00
2023-02-27T02:00:15.890Z,361.00
2023-02-27T02:01:11.267Z,355.00
2023-02-27T02:02:06.436Z,357.00
2023-02-27T02:03:01.503Z,361.00
2023-02-27T02:03:57.240Z,359.00
2023-02-27T02:04:51.882Z,367.00
2023-02-27T02:05:47.124Z,362.00
2023-02-27T02:06:42.326Z,360.00
2023-02-27T02:07:37.821Z,362.00
2023-02-27T02:08:32.872Z,365.00
2023-02-27T02:09:28.177Z,361.00
2023-02-27T02:10:23.244Z,356.00
2023-02-27T02:11:18.452Z,365.00
2023-02-27T02:12:14.758Z,366.00
2023-02-27T02:13:10.008Z,359.00
2023-02-27T02:14:05.323Z,367.00
2023-02-27T02:15:00.385Z,364.00
2023-02-27T02:15:55.700Z,364.00
2023-02-27T02:16:50.698Z,362.00
2023-02-27T02:17:45.738Z,363.00
2023-02-27T02:18:40.837Z,367.00
2023-02-27T02:19:35.889Z,362.00
2023-02-27T02:20:30.978Z,360.00
2023-02-27T02:21:26.432Z,363.00
2023-02-27T02:22:21.063Z,365.00
2023-02-27T02:23:16.146Z,368.00
2023-02-27T02:24:11.215Z,365.00
2023-02-27T02:25:06.294Z,366.00
2023-02-27T02:26:01.898Z,353.00
2023-02-27T02:26:56.956Z,364.00
2023-02-27T02:27:52.041Z,368.00
2023-02-27T02:28:47.085Z,366.00
2023-02-27T02:29:42.161Z,367.00
2023-02-27T02:30:37.422Z,363.00
2023-02-27T02:31:32.445Z,363.00
2023-02-27T02:32:27.380Z,361.00
2023-02-27T02:33:22.309Z,365.00
2023-02-27T02:34:17.340Z,368.00
2023-02-27T02:35:12.474Z,365.00
2023-02-27T02:36:07.531Z,362.00
2023-02-27T02:37:02.617Z,368.00
2023-02-27T02:37:57.830Z,365.00
2023-02-27T02:38:52.818Z,364.00
2023-02-27T02:39:48.021Z,363.00
2023-02-27T02:40:43.208Z,367.00
2023-02-27T02:41:38.284Z,359.00
2023-02-27T02:42:36.348Z,359.00
2023-02-27T02:43:31.400Z,364.00
2023-02-27T02:44:26.752Z,355.00
2023-02-27T02:45:21.468Z,364.00
2023-02-27T02:46:16.702Z,362.00
2023-02-27T02:47:12.574Z,362.00
2023-02-27T02:48:06.737Z,366.00
2023-02-27T02:49:01.775Z,359.00
2023-02-27T02:49:56.881Z,365.00
2023-02-27T02:50:51.980Z,368.00
2023-02-27T02:51:46.938Z,357.00
2023-02-27T02:52:42.050Z,357.00
2023-02-27T02:53:37.746Z,361.00
2023-02-27T02:54:32.199Z,361.00
2023-02-27T02:55:27.136Z,358.00
2023-02-27T02:56:22.517Z,358.00
2023-02-27T02:57:17.597Z,357.00
2023-02-27T02:58:12.673Z,359.00
2023-02-27T02:59:10.845Z,361.00
2023-02-27T03:00:05.913Z,364.00
2023-02-27T03:01:00.970Z,362.00
2023-02-27T03:01:56.038Z,353.00
2023-02-27T03:02:51.060Z,358.00
2023-02-27T03:03:46.388Z,362.00
2023-02-27T03:04:41.371Z,362.00
2023-02-27T03:05:36.318Z,361.00
2023-02-27T03:06:31.555Z,365.00
2023-02-27T03:07:26.443Z,362.00
2023-02-27T03:08:21.512Z,359.00
2023-02-27T03:09:16.576Z,364.00
2023-02-27T03:10:11.632Z,360.00
2023-02-27T03:11:06.683Z,360.00
2023-02-27T03:12:01.886Z,359.00
2023-02-27T03:12:59.255Z,361.00
2023-02-27T03:13:51.896Z,361.00
2023-02-27T03:14:46.938Z,360.00
2023-02-27T03:15:44.321Z,357.00
2023-02-27T03:16:39.383Z,357.00
2023-02-27T03:17:34.439Z,362.00
2023-02-27T03:18:29.474Z,363.00
2023-02-27T03:19:24.487Z,361.00
2023-02-27T03:20:19.474Z,359.00
2023-02-27T03:21:14.512Z,362.00
2023-02-27T03:22:09.508Z,362.00
2023-02-27T03:23:04.577Z,357.00
2023-02-27T03:23:59.559Z,358.00
2023-02-27T03:24:54.688Z,356.00
2023-02-27T03:25:49.739Z,361.00
2023-02-27T03:26:44.736Z,361.00
2023-02-27T03:27:40.014Z,362.00
2023-02-27T03:28:35.006Z,364.00
2023-02-27T03:29:30.444Z,365.00
2023-02-27T03:30:25.786Z,363.00
2023-02-27T03:31:20.964Z,364.00
2023-02-27T03:32:16.055Z,364.00
2023-02-27T03:33:11.221Z,362.00
2023-02-27T03:34:06.359Z,366.00
2023-02-27T03:35:01.663Z,361.00
2023-02-27T03:35:56.823Z,358.00
2023-02-27T03:36:51.966Z,364.00
2023-02-27T03:37:47.104Z,361.00
2023-02-27T03:38:42.393Z,359.00
2023-02-27T03:39:37.661Z,360.00
2023-02-27T03:40:32.818Z,360.00
2023-02-27T03:41:28.217Z,359.00
2023-02-27T03:42:23.329Z,364.00
2023-02-27T03:43:18.321Z,365.00
2023-02-27T03:44:13.461Z,365.00
2023-02-27T03:45:08.873Z,362.00
2023-02-27T03:46:04.023Z,361.00
2023-02-27T03:46:59.132Z,360.00
2023-02-27T03:47:54.430Z,367.00
2023-02-27T03:48:49.411Z,362.00
2023-02-27T03:49:44.714Z,370.00
2023-02-27T03:50:39.852Z,368.00
2023-02-27T03:51:35.013Z,362.00
2023-02-27T03:52:30.164Z,363.00
2023-02-27T03:53:25.541Z,367.00
2023-02-27T03:54:20.686Z,363.00
2023-02-27T03:55:15.783Z,363.00
2023-02-27T03:56:10.935Z,365.00
2023-02-27T03:57:06.109Z,369.00
2023-02-27T03:58:01.240Z,367.00
2023-02-27T03:58:56.664Z,362.00
2023-02-27T03:59:51.663Z,362.00
2023-02-27T04:00:46.799Z,361.00
2023-02-27T04:01:42.011Z,366.00
2023-02-27T04:02:37.334Z,360.00
2023-02-27T04:03:32.425Z,366.00
2023-02-27T04:04:27.638Z,366.00
2023-02-27T04:05:22.796Z,364.00
2023-02-27T04:06:18.045Z,359.00
2023-02-27T04:07:13.156Z,362.00
2023-02-27T04:08:09.259Z,361.00
2023-02-27T04:09:03.622Z,364.00
2023-02-27T04:09:58.948Z,365.00
2023-02-27T04:12:25.487Z,359.00
2023-02-27T04:13:17.680Z,356.00
2023-02-27T04:14:12.812Z,356.00
2023-02-27T04:15:07.968Z,363.00
2023-02-27T04:16:03.211Z,366.00
2023-02-27T04:16:58.350Z,357.00
2023-02-27T04:17:53.490Z,359.00
2023-02-27T04:18:48.760Z,357.00
2023-02-27T04:19:43.931Z,362.00
2023-02-27T04:20:39.077Z,362.00
2023-02-27T04:21:34.196Z,353.00
2023-02-27T04:22:29.577Z,358.00
2023-02-27T04:23:24.540Z,359.00
2023-02-27T04:24:19.784Z,355.00
2023-02-27T04:25:14.925Z,354.00
2023-02-27T04:26:10.205Z,358.00
2023-02-27T04:27:06.922Z,361.00
2023-02-27T04:28:00.529Z,354.00
2023-02-27T04:28:55.780Z,358.00
2023-02-27T04:29:51.040Z,361.00
2023-02-27T04:30:46.042Z,356.00
2023-02-27T04:31:41.373Z,355.00
2023-02-27T04:32:36.621Z,357.00
2023-02-27T04:33:31.799Z,357.00
2023-02-27T04:34:26.797Z,356.00
2023-02-27T04:35:21.940Z,356.00
2023-02-27T04:36:17.060Z,360.00
2023-02-27T04:37:12.467Z,353.00
2023-02-27T04:38:07.711Z,355.00
2023-02-27T04:39:02.694Z,357.00
2023-02-27T04:39:57.813Z,358.00
2023-02-27T04:40:52.973Z,352.00
2023-02-27T04:41:48.053Z,354.00
2023-02-27T04:42:43.538Z,354.00
2023-02-27T04:43:38.575Z,356.00
2023-02-27T04:44:33.849Z,354.00
2023-02-27T04:45:29.142Z,358.00
2023-02-27T04:46:24.413Z,355.00
2023-02-27T04:47:19.387Z,353.00
2023-02-27T04:48:14.545Z,358.00
2023-02-27T04:49:09.672Z,351.00
2023-02-27T04:50:04.978Z,359.00
2023-02-27T04:51:00.193Z,361.00
2023-02-27T04:51:55.327Z,359.00
2023-02-27T04:52:50.583Z,352.00
2023-02-27T04:53:45.730Z,360.00
2023-02-27T04:54:40.969Z,357.00
2023-02-27T04:55:36.030Z,359.00
2023-02-27T04:56:31.279Z,366.00
2023-02-27T04:57:26.427Z,360.00
2023-02-27T04:58:22.269Z,353.00
2023-02-27T04:59:16.842Z,358.00
2023-02-27T05:00:11.959Z,358.00
2023-02-27T05:01:07.357Z,355.00
2023-02-27T05:02:02.314Z,362.00
2023-02-27T05:02:57.751Z,354.00
2023-02-27T05:03:52.703Z,357.00
2023-02-27T05:04:47.872Z,354.00
2023-02-27T05:05:43.058Z,353.00
2023-02-27T05:06:38.189Z,351.00
2023-02-27T05:07:33.312Z,361.00
2023-02-27T05:08:28.621Z,359.00
2023-02-27T05:09:23.622Z,355.00
2023-02-27T05:10:18.883Z,359.00
2023-02-27T05:11:13.909Z,359.00
2023-02-27T05:12:09.194Z,359.00
2023-02-27T05:13:04.587Z,352.00
2023-02-27T05:13:59.617Z,363.00
2023-02-27T05:14:54.604Z,356.00
2023-02-27T05:15:49.792Z,354.00
2023-02-27T05:16:45.837Z,359.00
2023-02-27T05:17:40.218Z,358.00
2023-02-27T05:18:35.502Z,356.00
2023-02-27T05:19:30.759Z,357.00
2023-02-27T05:20:27.370Z,356.00
2023-02-27T05:21:20.978Z,358.00
2023-02-27T05:22:16.084Z,356.00
2023-02-27T05:23:11.512Z,359.00
2023-02-27T05:24:06.529Z,366.00
2023-02-27T05:25:01.785Z,360.00
2023-02-27T05:25:57.091Z,355.00
2023-02-27T05:26:52.134Z,360.00
2023-02-27T05:27:47.346Z,363.00
2023-02-27T05:28:44.126Z,358.00
2023-02-27T05:29:37.635Z,363.00
2023-02-27T05:30:33.049Z,364.00
2023-02-27T05:31:28.350Z,366.00
2023-02-27T05:32:23.201Z,357.00
2023-02-27T05:33:18.376Z,360.00
2023-02-27T05:34:13.643Z,362.00
2023-02-27T05:35:08.752Z,358.00
2023-02-27T05:36:04.127Z,369.00
2023-02-27T05:36:59.234Z,364.00
2023-02-27T05:37:54.239Z,362.00
2023-02-27T05:38:49.428Z,360.00
2023-02-27T05:39:44.596Z,358.00
2023-02-27T05:40:39.850Z,369.00
2023-02-27T05:41:35.194Z,356.00
2023-02-27T05:42:30.175Z,357.00
2023-02-27T05:43:25.367Z,366.00
2023-02-27T05:44:20.541Z,355.00
2023-02-27T05:45:15.654Z,363.00
2023-02-27T05:46:10.872Z,365.00
2023-02-27T05:47:06.021Z,360.00
2023-02-27T05:48:01.144Z,362.00
2023-02-27T05:48:57.460Z,359.00
2023-02-27T05:49:51.549Z,358.00
2023-02-27T05:50:46.909Z,355.00
2023-02-27T05:51:41.990Z,356.00
2023-02-27T05:52:37.847Z,357.00
2023-02-27T05:53:32.566Z,355.00
2023-02-27T05:54:27.767Z,365.00
2023-02-27T05:55:22.988Z,363.00
2023-02-27T05:56:18.206Z,360.00
2023-02-27T05:57:13.388Z,356.00
2023-02-27T05:58:08.840Z,361.00
2023-02-27T05:59:03.939Z,358.00
2023-02-27T05:59:59.180Z,368.00
2023-02-27T06:00:54.550Z,358.00
2023-02-27T06:01:49.667Z,358.00
2023-02-27T06:02:44.901Z,363.00
2023-02-27T06:03:40.208Z,365.00
2023-02-27T06:04:35.526Z,369.00
2023-02-27T06:05:30.917Z,362.00
2023-02-27T06:06:26.311Z,363.00
2023-02-27T06:07:22.032Z,361.00
2023-02-27T06:08:16.716Z,365.00
2023-02-27T06:09:12.014Z,362.00
2023-02-27T06:10:07.339Z,357.00
2023-02-27T06:11:02.954Z,362.00
2023-02-27T06:11:58.023Z,360.00
2023-02-27T06:12:53.362Z,374.00
2023-02-27T06:13:48.680Z,372.00
2023-02-27T06:14:44.147Z,367.00
2023-02-27T06:15:39.445Z,363.00
2023-02-27T06:16:34.645Z,368.00
2023-02-27T06:17:29.940Z,367.00
2023-02-27T06:18:25.277Z,366.00
2023-02-27T06:19:20.601Z,362.00
2023-02-27T06:20:15.921Z,362.00
2023-02-27T06:21:11.389Z,364.00
2023-02-27T06:22:06.606Z,366.00
2023-02-27T06:23:01.931Z,365.00
2023-02-27T06:23:57.274Z,365.00
2023-02-27T06:24:52.578Z,365.00
2023-02-27T06:25:48.337Z,364.00
2023-02-27T06:26:43.251Z,372.00
2023-02-27T06:27:38.604Z,361.00
2023-02-27T06:28:33.936Z,376.00
2023-02-27T06:29:29.271Z,368.00
2023-02-27T06:30:24.575Z,365.00
2023-02-27T06:31:20.070Z,363.00
2023-02-27T06:32:15.262Z,364.00
2023-02-27T06:33:10.703Z,361.00
2023-02-27T06:34:06.402Z,362.00
2023-02-27T06:35:01.158Z,356.00
2023-02-27T06:35:56.538Z,371.00
2023-02-27T06:36:51.841Z,366.00
2023-02-27T06:37:47.483Z,363.00
2023-02-27T06:38:42.719Z,361.00
2023-02-27T06:39:37.987Z,358.00
2023-02-27T06:40:33.568Z,359.00
2023-02-27T06:41:28.954Z,357.00
2023-02-27T06:42:24.238Z,364.00
2023-02-27T06:43:19.602Z,360.00
2023-02-27T06:44:15.043Z,366.00
2023-02-27T06:45:10.414Z,366.00
2023-02-27T06:46:05.898Z,367.00
2023-02-27T06:47:01.196Z,366.00
2023-02-27T06:47:56.640Z,369.00
2023-02-27T06:48:52.192Z,371.00
2023-02-27T06:49:47.495Z,368.00
2023-02-27T06:50:42.917Z,365.00
2023-02-27T06:51:38.318Z,362.00
2023-02-27T06:52:33.803Z,365.00
2023-02-27T06:53:29.038Z,363.00
2023-02-27T06:54:24.443Z,364.00
2023-02-27T06:55:19.791Z,360.00
2023-02-27T06:56:15.307Z,369.00
2023-02-27T06:57:10.585Z,361.00
2023-02-27T06:58:05.928Z,366.00
2023-02-27T06:59:01.481Z,364.00
2023-02-27T06:59:56.730Z,365.00
2023-02-27T07:00:52.152Z,370.00
2023-02-27T07:01:47.688Z,368.00
2023-02-27T07:02:43.011Z,366.00
2023-02-27T07:03:38.468Z,364.00
2023-02-27T07:04:34.101Z,357.00
2023-02-27T07:05:29.367Z,357.00
2023-02-27T07:07:33.292Z,356.00
2023-02-27T07:07:34.419Z,362.00
2023-02-27T07:08:16.768Z,362.00
2023-02-27T07:09:11.290Z,364.00
2023-02-27T07:10:06.709Z,363.00
2023-02-27T07:11:02.263Z,366.00
2023-02-27T07:11:57.589Z,362.00
2023-02-27T07:12:53.094Z,362.00
2023-02-27T07:13:48.506Z,367.00
2023-02-27T07:14:44.211Z,375.00
2023-02-27T07:15:39.653Z,370.00
2023-02-27T07:16:35.063Z,361.00
2023-02-27T07:17:30.501Z,363.00
2023-02-27T07:18:25.936Z,361.00
2023-02-27T07:19:21.341Z,357.00
2023-02-27T07:20:16.961Z,363.00
2023-02-27T07:21:12.379Z,364.00
2023-02-27T07:22:07.842Z,357.00
2023-02-27T07:23:03.404Z,361.00
2023-02-27T07:23:58.858Z,361.00
2023-02-27T07:24:54.263Z,365.00
2023-02-27T07:25:49.851Z,373.00
2023-02-27T07:26:45.263Z,367.00
2023-02-27T07:27:40.983Z,370.00
2023-02-27T07:28:36.364Z,373.00
2023-02-27T07:29:31.803Z,367.00
2023-02-27T07:30:27.219Z,367.00
2023-02-27T07:31:22.866Z,366.00
2023-02-27T07:32:18.399Z,369.00
2023-02-27T07:33:14.295Z,363.00
2023-02-27T07:34:09.058Z,366.00
2023-02-27T07:35:04.506Z,369.00
2023-02-27T07:36:00.079Z,372.00
2023-02-27T07:36:55.432Z,367.00
2023-02-27T07:37:50.883Z,371.00
2023-02-27T07:38:46.826Z,371.00
2023-02-27T07:39:41.762Z,371.00
2023-02-27T07:40:37.212Z,367.00
2023-02-27T07:41:32.661Z,364.00
2023-02-27T07:42:28.090Z,365.00
2023-02-27T07:43:23.708Z,366.00
2023-02-27T07:44:19.155Z,368.00
2023-02-27T07:45:14.633Z,385.00
2023-02-27T07:46:10.056Z,385.00
2023-02-27T07:47:05.509Z,380.00
2023-02-27T07:48:01.113Z,388.00
2023-02-27T07:48:56.691Z,379.00
2023-02-27T07:49:51.934Z,383.00
2023-02-27T07:50:47.497Z,384.00
2023-02-27T07:51:42.935Z,390.00
2023-02-27T07:52:38.361Z,397.00
2023-02-27T07:53:33.886Z,392.00
2023-02-27T07:54:29.297Z,384.00
2023-02-27T07:55:24.636Z,382.00
2023-02-27T07:56:20.025Z,385.00
2023-02-27T07:57:15.632Z,382.00
2023-02-27T07:58:11.091Z,378.00
2023-02-27T07:59:06.380Z,383.00
2023-02-27T08:00:01.865Z,383.00
2023-02-27T08:00:57.314Z,381.00
2023-02-27T08:01:52.851Z,381.00
2023-02-27T08:02:47.942Z,381.00
2023-02-27T08:03:42.997Z,386.00
2023-02-27T08:04:38.154Z,381.00
2023-02-27T08:05:33.511Z,392.00
2023-02-27T08:06:28.573Z,385.00
2023-02-27T08:07:23.164Z,381.00
2023-02-27T08:08:18.234Z,379.00
2023-02-27T08:09:13.306Z,385.00
2023-02-27T08:10:08.473Z,384.00
2023-02-27T08:11:03.543Z,384.00
2023-02-27T08:11:58.447Z,380.00
2023-02-27T08:12:53.517Z,383.00
2023-02-27T08:14:00.197Z,387.00
2023-02-27T08:14:44.908Z,386.00
2023-02-27T08:15:39.301Z,390.00
2023-02-27T08:16:34.711Z,388.00
2023-02-27T08:17:30.148Z,382.00
2023-02-27T08:18:25.658Z,383.00
2023-02-27T08:19:21.256Z,377.00
2023-02-27T08:20:16.868Z,382.00
2023-02-27T08:21:12.250Z,384.00
2023-02-27T08:22:07.877Z,383.00
2023-02-27T08:23:03.267Z,385.00
2023-02-27T08:23:58.779Z,382.00
2023-02-27T08:24:54.232Z,393.00
2023-02-27T08:25:49.452Z,388.00
2023-02-27T08:26:44.404Z,387.00
2023-02-27T08:27:39.499Z,392.00
2023-02-27T08:28:36.116Z,395.00
2023-02-27T08:29:31.109Z,393.00
2023-02-27T08:30:26.133Z,386.00
2023-02-27T08:31:21.258Z,387.00
2023-02-27T08:32:16.385Z,381.00
2023-02-27T08:33:11.361Z,386.00
2023-02-27T08:34:10.144Z,379.00
2023-02-27T08:35:01.540Z,382.00
2023-02-27T08:35:56.590Z,383.00
2023-02-27T08:36:51.531Z,382.00
2023-02-27T08:37:46.581Z,382.00
2023-02-27T08:38:43.047Z,378.00
2023-02-27T08:39:38.484Z,379.00
2023-02-27T08:40:33.862Z,387.00
2023-02-27T08:41:29.507Z,407.00
2023-02-27T08:42:26.812Z,402.00
2023-02-27T08:43:20.445Z,402.00
2023-02-27T08:44:15.820Z,402.00
2023-02-27T08:45:11.436Z,405.00
2023-02-27T08:46:06.828Z,406.00
2023-02-27T08:47:02.460Z,400.00
2023-02-27T08:47:58.103Z,402.00
2023-02-27T08:48:53.495Z,405.00
2023-02-27T08:49:49.010Z,401.00
2023-02-27T08:50:44.676Z,401.00
2023-02-27T08:51:43.233Z,571.00
2023-02-27T08:52:38.632Z,591.00
2023-02-27T08:53:34.056Z,575.00
2023-02-27T08:54:29.594Z,429.00
2023-02-27T08:55:24.994Z,448.00
2023-02-27T08:56:20.454Z,442.00
2023-02-27T08:57:15.926Z,445.00
2023-02-27T08:58:11.404Z,425.00
2023-02-27T08:59:06.839Z,434.00
2023-02-27T09:00:02.569Z,414.00
2023-02-27T09:00:57.798Z,437.00
2023-02-27T09:01:53.288Z,426.00
2023-02-27T09:02:48.724Z,415.00
2023-02-27T09:03:44.247Z,405.00
2023-02-27T09:04:39.853Z,406.00
2023-02-27T09:05:35.155Z,403.00
2023-02-27T09:06:30.398Z,402.00
2023-02-27T09:07:25.129Z,395.00
2023-02-27T09:08:20.364Z,399.00
2023-02-27T09:09:15.355Z,405.00
2023-02-27T09:10:10.376Z,391.00
2023-02-27T09:11:05.550Z,396.00
2023-02-27T09:12:00.357Z,390.00
2023-02-27T09:12:55.438Z,398.00
2023-02-27T09:13:50.430Z,397.00
2023-02-27T09:14:47.321Z,403.00
2023-02-27T09:15:42.422Z,399.00
2023-02-27T09:16:37.692Z,399.00
2023-02-27T09:17:32.644Z,398.00
2023-02-27T09:18:28.309Z,397.00
2023-02-27T09:19:23.897Z,401.00
2023-02-27T09:20:19.183Z,400.00
2023-02-27T09:21:14.736Z,398.00
2023-02-27T09:22:10.185Z,402.00
2023-02-27T09:23:05.481Z,399.00
2023-02-27T09:24:17.111Z,394.00
2023-02-27T09:24:57.986Z,402.00
2023-02-27T09:25:51.626Z,384.00
2023-02-27T09:26:47.621Z,398.00
2023-02-27T09:27:42.571Z,391.00
2023-02-27T09:28:38.087Z,397.00
2023-02-27T09:29:33.488Z,391.00
2023-02-27T09:30:29.197Z,397.00
2023-02-27T09:31:24.361Z,390.00
2023-02-27T09:32:19.616Z,392.00
2023-02-27T09:33:14.402Z,389.00
2023-02-27T09:34:09.395Z,396.00
2023-02-27T09:35:04.748Z,393.00
2023-02-27T09:35:59.478Z,395.00
2023-02-27T09:36:54.485Z,396.00
2023-02-27T09:37:50.459Z,400.00
2023-02-27T09:38:45.587Z,395.00
2023-02-27T09:39:40.645Z,399.00
2023-02-27T09:40:35.779Z,392.00
2023-02-27T09:41:31.859Z,399.00
2023-02-27T09:42:27.371Z,399.00
2023-02-27T09:43:22.738Z,395.00
2023-02-27T09:44:18.228Z,391.00
2023-02-27T09:45:13.945Z,392.00
2023-02-27T09:46:09.502Z,394.00
2023-02-27T09:47:04.833Z,399.00
2023-02-27T09:48:00.684Z,391.00
2023-02-27T09:48:55.998Z,395.00
2023-02-27T09:49:51.352Z,390.00
2023-02-27T09:50:46.833Z,398.00
2023-02-27T09:51:42.560Z,391.00
2023-02-27T09:52:37.758Z,393.00
2023-02-27T09:53:33.366Z,394.00
2023-02-27T09:54:28.420Z,391.00
2023-02-27T09:55:23.544Z,395.00
2023-02-27T09:56:18.587Z,391.00
2023-02-27T09:57:14.022Z,397.00
2023-02-27T09:58:08.816Z,390.00
2023-02-27T09:59:03.948Z,390.00
2023-02-27T09:59:59.029Z,393.00
2023-02-27T10:00:56.290Z,394.00
2023-02-27T10:01:51.336Z,396.00
2023-02-27T10:02:46.468Z,392.00
2023-02-27T10:03:41.483Z,394.00
2023-02-27T10:04:36.586Z,389.00
2023-02-27T10:05:31.684Z,386.00
2023-02-27T10:06:27.261Z,384.00
2023-02-27T10:07:21.828Z,382.00
2023-02-27T10:08:17.037Z,381.00
2023-02-27T10:09:12.640Z,386.00
2023-02-27T10:10:07.996Z,392.00
2023-02-27T10:11:03.478Z,389.00
2023-02-27T10:11:59.059Z,397.00
2023-02-27T10:12:54.242Z,392.00
2023-02-27T10:13:49.942Z,395.00
2023-02-27T10:14:45.602Z,392.00
2023-02-27T10:15:41.350Z,389.00
2023-02-27T10:16:36.446Z,390.00
2023-02-27T10:17:31.786Z,390.00
2023-02-27T10:18:30.675Z,391.00
2023-02-27T10:19:23.009Z,395.00
2023-02-27T10:20:18.641Z,395.00
2023-02-27T10:21:13.670Z,392.00
2023-02-27T10:22:08.812Z,393.00
2023-02-27T10:23:03.710Z,394.00
2023-02-27T10:23:59.937Z,399.00
2023-02-27T10:24:54.995Z,440.00
2023-02-27T10:25:50.079Z,428.00
2023-02-27T10:26:45.432Z,417.00
2023-02-27T10:27:40.345Z,400.00
2023-02-27T10:28:35.460Z,412.00
2023-02-27T10:29:30.518Z,410.00
2023-02-27T10:30:30.428Z,406.00
2023-02-27T10:31:21.619Z,406.00
2023-02-27T10:32:15.959Z,402.00
2023-02-27T10:33:10.781Z,396.00
2023-02-27T10:34:06.595Z,402.00
2023-02-27T10:35:01.976Z,400.00
2023-02-27T10:35:57.660Z,412.00
2023-02-27T10:36:53.028Z,405.00
2023-02-27T10:37:48.664Z,408.00
2023-02-27T10:38:44.116Z,408.00
2023-02-27T10:39:39.700Z,402.00
2023-02-27T10:40:34.971Z,404.00
2023-02-27T10:41:30.632Z,403.00
2023-02-27T10:42:25.974Z,398.00
2023-02-27T10:43:21.300Z,400.00
2023-02-27T10:44:16.654Z,393.00
2023-02-27T10:45:12.079Z,403.00
2023-02-27T10:46:09.033Z,402.00
2023-02-27T10:47:07.125Z,393.00
2023-02-27T10:48:02.407Z,396.00
2023-02-27T10:48:57.856Z,397.00
2023-02-27T10:49:53.564Z,401.00
2023-02-27T10:50:48.982Z,397.00
2023-02-27T10:51:44.446Z,406.00
2023-02-27T10:52:40.864Z,405.00
2023-02-27T10:53:35.312Z,406.00
2023-02-27T10:54:30.743Z,405.00
2023-02-27T10:55:26.458Z,414.00
2023-02-27T10:56:21.616Z,405.00
2023-02-27T10:57:16.950Z,404.00
2023-02-27T10:58:12.488Z,412.00
2023-02-27T10:59:07.766Z,404.00
2023-02-27T11:00:03.376Z,402.00
2023-02-27T11:00:58.398Z,398.00
2023-02-27T11:01:53.442Z,406.00
2023-02-27T11:02:49.133Z,399.00
2023-02-27T11:03:43.715Z,402.00
2023-02-27T11:04:38.910Z,398.00
2023-02-27T11:05:34.070Z,409.00
2023-02-27T11:06:29.086Z,407.00
2023-02-27T11:07:24.145Z,402.00
2023-02-27T11:08:19.362Z,410.00
2023-02-27T11:09:14.456Z,406.00
2023-02-27T11:10:10.543Z,403.00
2023-02-27T11:11:05.589Z,413.00
2023-02-27T11:12:00.845Z,408.00
2023-02-27T11:12:56.012Z,412.00
2023-02-27T11:13:50.999Z,409.00
2023-02-27T11:14:46.110Z,408.00
2023-02-27T11:15:41.145Z,408.00
2023-02-27T11:16:36.173Z,409.00
2023-02-27T11:17:31.762Z,406.00
2023-02-27T11:18:29.723Z,407.00
2023-02-27T11:19:25.285Z,406.00
2023-02-27T11:20:20.727Z,401.00
2023-02-27T11:21:16.256Z,408.00
2023-02-27T11:22:11.608Z,404.00
2023-02-27T11:23:06.889Z,404.00
2023-02-27T11:24:02.003Z,404.00
2023-02-27T11:24:56.976Z,400.00
2023-02-27T11:25:51.947Z,404.00
2023-02-27T11:26:47.051Z,399.00
2023-02-27T11:27:42.324Z,413.00
2023-02-27T11:28:37.339Z,407.00
2023-02-27T11:29:32.186Z,400.00
2023-02-27T11:30:27.320Z,398.00
2023-02-27T11:31:22.504Z,404.00
2023-02-27T11:32:17.887Z,402.00